Time;durP1;ratioP1;P1;durP2;ratioP2;P2;SDS_P1;SDS_P2;PMS_P1;PMS_P2;Temp;Humidity;BMP_temperature;BMP_pressure;BME280_temperature;BME280_humidity;BME280_pressure;Samples;Min_cycle;Max_cycle;Signal;HPM_P1;HPM_P2
2021/12/14 00:01:08;;;;;;;17.40;10.75;;;;;;;;;;4997607;28;20381;-68
2021/12/14 00:03:36;;;;;;;16.00;10.15;;;;;;;;;;4996885;28;20485;-68
2021/12/14 00:06:03;;;;;;;15.27;9.85;;;;;;;;;;4997684;28;20068;-68
2021/12/14 00:08:36;;;;;;;15.30;10.10;;;;;;;;;;4981551;28;20077;-68
2021/12/14 00:13:44;;;;;;;15.45;9.50;;;;;;;;;;4997512;28;20057;-68
2021/12/14 00:16:12;;;;;;;14.52;10.02;;;;;;;;;;5015353;28;20396;-68
2021/12/14 00:18:38;;;;;;;16.17;10.30;;;;;;;;;;5014264;28;20053;-68
2021/12/14 00:21:08;;;;;;;17.08;9.55;;;;;;;;;;5014768;28;20062;-68
2021/12/14 00:26:21;;;;;;;15.63;10.13;;;;;;;;;;5014852;28;20041;-68
2021/12/14 00:28:48;;;;;;;16.80;10.18;;;;;;;;;;5014655;28;20057;-68
2021/12/14 00:31:17;;;;;;;17.83;10.32;;;;;;;;;;4997169;28;20825;-68
2021/12/14 00:33:44;;;;;;;14.15;10.40;;;;;;;;;;4996680;28;20370;-68
2021/12/14 00:36:11;;;;;;;18.45;10.23;;;;;;;;;;4997033;28;20044;-68
2021/12/14 00:38:38;;;;;;;20.98;11.20;;;;;;;;;;4996757;28;20101;-68
2021/12/14 00:41:10;;;;;;;18.48;10.25;;;;;;;;;;5013879;28;20099;-68
2021/12/14 00:43:36;;;;;;;15.73;10.73;;;;;;;;;;5013528;28;20042;-68
2021/12/14 00:46:03;;;;;;;17.63;10.10;;;;;;;;;;4996942;28;20634;-68
2021/12/14 00:48:29;;;;;;;17.55;11.15;;;;;;;;;;4996320;28;20096;-68
2021/12/14 00:50:58;;;;;;;16.10;10.40;;;;;;;;;;4996862;28;20077;-68
2021/12/14 00:53:24;;;;;;;18.33;10.80;;;;;;;;;;5014218;28;20046;-68
2021/12/14 00:55:52;;;;;;;17.45;12.20;;;;;;;;;;4996264;28;20057;-68
2021/12/14 00:58:18;;;;;;;19.23;11.43;;;;;;;;;;4996700;28;20456;-68
2021/12/14 01:00:46;;;;;;;19.13;12.18;;;;;;;;;;5014376;28;20065;-68
2021/12/14 01:03:13;;;;;;;20.17;12.82;;;;;;;;;;4996041;28;20045;-68
2021/12/14 01:05:42;;;;;;;19.38;12.10;;;;;;;;;;4996424;28;20052;-69
2021/12/14 01:08:10;;;;;;;19.42;12.73;;;;;;;;;;5014345;28;20590;-68
2021/12/14 01:10:47;;;;;;;15.65;11.43;;;;;;;;;;4995928;28;20053;-68
2021/12/14 01:13:13;;;;;;;20.15;12.93;;;;;;;;;;5013801;28;20464;-68
2021/12/14 01:15:59;;;;;;;20.05;13.07;;;;;;;;;;4996467;28;20092;-68
2021/12/14 01:21:00;;;;;;;19.17;12.40;;;;;;;;;;5013907;28;20539;-68
2021/12/14 01:23:31;;;;;;;21.90;13.52;;;;;;;;;;5013055;28;20048;-68
2021/12/14 01:26:02;;;;;;;20.42;13.15;;;;;;;;;;5013654;28;20523;-68
2021/12/14 01:28:29;;;;;;;20.45;12.77;;;;;;;;;;4992506;28;20065;-68
2021/12/14 01:31:04;;;;;;;21.42;12.95;;;;;;;;;;4991837;28;20053;-68
2021/12/14 01:33:31;;;;;;;21.40;13.80;;;;;;;;;;4992712;28;20050;-68
2021/12/14 01:35:59;;;;;;;25.33;14.25;;;;;;;;;;4994088;28;20798;-68
2021/12/14 01:41:03;;;;;;;25.42;14.55;;;;;;;;;;4993985;28;20899;-68
2021/12/14 01:43:29;;;;;;;24.08;13.60;;;;;;;;;;4993884;28;20069;-68
2021/12/14 01:45:57;;;;;;;23.95;14.07;;;;;;;;;;4975556;28;20038;-68
2021/12/14 01:48:23;;;;;;;20.33;14.00;;;;;;;;;;4994116;28;20046;-68
2021/12/14 01:50:51;;;;;;;22.70;14.15;;;;;;;;;;4976249;28;20050;-68
2021/12/14 01:53:20;;;;;;;22.98;14.05;;;;;;;;;;4991510;28;20094;-68
2021/12/14 01:55:53;;;;;;;23.92;15.35;;;;;;;;;;4993811;28;20050;-68
2021/12/14 01:58:21;;;;;;;20.98;14.05;;;;;;;;;;4992311;28;20440;-68
2021/12/14 02:00:53;;;;;;;23.75;14.38;;;;;;;;;;4992886;28;20043;-68
2021/12/14 02:03:19;;;;;;;;;;;;;;;;;;4992759;28;20046;-68
2021/12/14 02:05:48;;;;;;;25.73;13.82;;;;;;;;;;4991936;28;19955;-68
2021/12/14 02:08:25;;;;;;;26.85;14.05;;;;;;;;;;4992769;28;20413;-68
2021/12/14 02:10:51;;;;;;;24.08;14.15;;;;;;;;;;4992000;28;20064;-68
2021/12/14 02:13:25;;;;;;;23.95;14.25;;;;;;;;;;4993103;28;20402;-68
2021/12/14 02:15:52;;;;;;;23.05;13.90;;;;;;;;;;4991342;28;20053;-68
2021/12/14 02:18:20;;;;;;;24.98;14.60;;;;;;;;;;4993046;28;20050;-68
2021/12/14 02:21:01;;;;;;;25.05;14.85;;;;;;;;;;4992020;28;20050;-68
2021/12/14 02:23:27;;;;;;;25.88;14.75;;;;;;;;;;4990990;28;20074;-68
2021/12/14 02:25:54;;;;;;;25.48;15.10;;;;;;;;;;4991799;28;20042;-68
2021/12/14 02:28:22;;;;;;;27.23;15.90;;;;;;;;;;4975315;28;20429;-68
2021/12/14 02:30:49;;;;;;;24.33;14.10;;;;;;;;;;4990815;28;20050;-68
2021/12/14 02:33:19;;;;;;;23.08;14.82;;;;;;;;;;4991450;28;20394;-68
2021/12/14 02:35:46;;;;;;;24.23;14.95;;;;;;;;;;4991515;28;20469;-68
2021/12/14 02:38:13;;;;;;;24.55;15.40;;;;;;;;;;4991030;28;20080;-68
2021/12/14 02:40:53;;;;;;;26.17;15.63;;;;;;;;;;4991359;28;20097;-68
2021/12/14 02:43:25;;;;;;;26.90;15.77;;;;;;;;;;4992816;28;20034;-68
2021/12/14 02:45:51;;;;;;;25.95;15.60;;;;;;;;;;4990734;28;20057;-68
2021/12/14 02:48:18;;;;;;;27.42;15.50;;;;;;;;;;4991320;28;20046;-68
2021/12/14 02:50:44;;;;;;;29.73;15.98;;;;;;;;;;4992467;28;20077;-68
2021/12/14 02:53:11;;;;;;;28.98;15.77;;;;;;;;;;4974629;28;20512;-68
2021/12/14 02:55:37;;;;;;;30.50;16.42;;;;;;;;;;4991388;28;20133;-68
2021/12/14 02:58:05;;;;;;;26.55;16.05;;;;;;;;;;4991117;28;20552;-68
2021/12/14 03:00:40;;;;;;;26.80;16.27;;;;;;;;;;4990606;28;20101;-68
2021/12/14 03:03:06;;;;;;;32.97;17.52;;;;;;;;;;4991011;28;20049;-68
2021/12/14 03:05:37;;;;;;;33.25;17.75;;;;;;;;;;4992673;28;20042;-68
2021/12/14 03:08:10;;;;;;;30.50;17.90;;;;;;;;;;4973881;28;20057;-68
2021/12/14 03:10:52;;;;;;;29.38;17.38;;;;;;;;;;4991294;28;20057;-68
2021/12/14 03:13:19;;;;;;;28.60;16.63;;;;;;;;;;4992431;28;20053;-68
2021/12/14 03:15:52;;;;;;;32.92;18.60;;;;;;;;;;4991889;28;20038;-68
2021/12/14 03:18:22;;;;;;;31.95;17.80;;;;;;;;;;4992175;28;20121;-68
2021/12/14 03:20:51;;;;;;;32.65;18.70;;;;;;;;;;4992155;28;20042;-68
2021/12/14 03:23:22;;;;;;;33.75;18.27;;;;;;;;;;4973771;28;20070;-68
2021/12/14 03:25:49;;;;;;;31.90;19.08;;;;;;;;;;4990652;28;20038;-68
2021/12/14 03:28:17;;;;;;;32.50;19.20;;;;;;;;;;4990870;28;20142;-68
2021/12/14 03:30:51;;;;;;;35.55;19.95;;;;;;;;;;4989990;28;20085;-68
2021/12/14 03:33:24;;;;;;;36.05;20.10;;;;;;;;;;4990832;28;20545;-68
2021/12/14 03:35:52;;;;;;;37.03;19.35;;;;;;;;;;4990889;28;20065;-68
2021/12/14 03:38:18;;;;;;;35.13;19.65;;;;;;;;;;4973754;28;20046;-68
2021/12/14 03:40:44;;;;;;;38.50;19.45;;;;;;;;;;4991156;28;20050;-68
2021/12/14 03:43:13;;;;;;;36.80;21.05;;;;;;;;;;4991978;28;20121;-68
2021/12/14 03:45:40;;;;;;;33.90;19.58;;;;;;;;;;4991667;28;20045;-68
2021/12/14 03:48:07;;;;;;;35.60;20.23;;;;;;;;;;4990703;28;20050;-68
2021/12/14 03:50:40;;;;;;;39.90;21.63;;;;;;;;;;4991036;28;20493;-68
2021/12/14 03:53:06;;;;;;;34.17;20.48;;;;;;;;;;4989913;28;20428;-68
2021/12/14 03:55:36;;;;;;;34.97;19.67;;;;;;;;;;4991860;28;20043;-68
2021/12/14 03:58:07;;;;;;;41.83;20.80;;;;;;;;;;4990677;28;20529;-68
2021/12/14 04:00:35;;;;;;;38.28;20.50;;;;;;;;;;4989969;28;20393;-68
2021/12/14 04:03:04;;;;;;;35.65;20.15;;;;;;;;;;4990456;28;20034;-68
2021/12/14 04:05:30;;;;;;;35.83;20.25;;;;;;;;;;4974548;28;20073;-68
2021/12/14 04:07:56;;;;;;;39.05;21.92;;;;;;;;;;4991170;28;20473;-68
2021/12/14 04:10:32;;;;;;;37.67;21.20;;;;;;;;;;4990398;28;20049;-68
2021/12/14 04:12:58;;;;;;;44.30;22.67;;;;;;;;;;4990258;28;20042;-68
2021/12/14 04:15:25;;;;;;;40.00;21.50;;;;;;;;;;4989679;28;20105;-68
2021/12/14 04:17:51;;;;;;;36.50;18.88;;;;;;;;;;4990211;28;20038;-68
2021/12/14 04:20:35;;;;;;;36.55;20.83;;;;;;;;;;4993015;28;20129;-68
2021/12/14 04:23:02;;;;;;;39.33;21.42;;;;;;;;;;4993975;28;20046;-68
2021/12/14 04:25:30;;;;;;;43.97;22.65;;;;;;;;;;4995087;28;20065;-68
2021/12/14 04:27:56;;;;;;;38.53;22.15;;;;;;;;;;4977417;28;20074;-68
2021/12/14 04:30:26;;;;;;;39.42;22.25;;;;;;;;;;4994663;28;20144;-68
2021/12/14 04:32:53;;;;;;;37.42;21.33;;;;;;;;;;4995278;28;20045;-68
2021/12/14 04:35:19;;;;;;;40.10;21.75;;;;;;;;;;4993855;28;20104;-68
2021/12/14 04:37:59;;;;;;;37.40;21.52;;;;;;;;;;4992897;28;20077;-68
2021/12/14 04:54:11;;;;;;;40.40;22.15;;;;;;;;;;4993528;28;20053;-68
2021/12/14 04:56:39;;;;;;;41.60;23.08;;;;;;;;;;4977252;28;20057;-68
2021/12/14 04:59:10;;;;;;;40.97;22.92;;;;;;;;;;4992678;28;20050;-68
2021/12/14 05:01:37;;;;;;;40.20;22.65;;;;;;;;;;4993248;28;20070;-68
2021/12/14 05:04:05;;;;;;;38.50;22.83;;;;;;;;;;4993319;28;20052;-68
2021/12/14 05:06:44;;;;;;;42.08;23.27;;;;;;;;;;4992315;28;20034;-68
2021/12/14 05:09:26;;;;;;;40.55;22.88;;;;;;;;;;4993333;28;20057;-68
2021/12/14 05:11:53;;;;;;;40.90;22.77;;;;;;;;;;4993296;28;20038;-68
2021/12/14 05:14:20;;;;;;;40.83;22.65;;;;;;;;;;4992786;28;20567;-68
2021/12/14 05:16:47;;;;;;;39.28;23.08;;;;;;;;;;4992990;28;20436;-68
2021/12/14 05:19:14;;;;;;;39.85;22.17;;;;;;;;;;4994172;28;20049;-68
2021/12/14 05:21:47;;;;;;;39.45;23.60;;;;;;;;;;4993332;28;20077;-68
2021/12/14 05:24:15;;;;;;;47.58;23.73;;;;;;;;;;4993123;28;20052;-68
2021/12/14 05:26:43;;;;;;;51.63;22.63;;;;;;;;;;4992778;28;20042;-68
2021/12/14 05:29:10;;;;;;;41.67;22.95;;;;;;;;;;4991981;28;20058;-68
2021/12/14 05:31:47;;;;;;;40.30;24.25;;;;;;;;;;4992497;28;20373;-68
2021/12/14 05:34:13;;;;;;;41.70;24.05;;;;;;;;;;4976477;28;20082;-68
2021/12/14 05:36:41;;;;;;;43.15;23.98;;;;;;;;;;4992209;28;20460;-68
2021/12/14 05:39:42;;;;;;;42.03;24.80;;;;;;;;;;4992730;28;20486;-68
2021/12/14 05:44:54;;;;;;;43.47;24.20;;;;;;;;;;4992509;28;20473;-68
2021/12/14 05:47:20;;;;;;;44.80;24.00;;;;;;;;;;4992434;28;20061;-68
2021/12/14 05:49:48;;;;;;;47.50;25.08;;;;;;;;;;4991858;28;20100;-68
2021/12/14 05:52:22;;;;;;;45.80;25.55;;;;;;;;;;4992423;28;20050;-68
2021/12/14 05:54:48;;;;;;;49.20;25.52;;;;;;;;;;4992237;28;20367;-68
2021/12/14 05:57:18;;;;;;;43.58;25.27;;;;;;;;;;4975509;28;20046;-68
2021/12/14 05:59:44;;;;;;;47.80;25.50;;;;;;;;;;4992213;28;20096;-68
2021/12/14 06:02:10;;;;;;;44.88;25.52;;;;;;;;;;4992176;28;20484;-68
2021/12/14 06:04:41;;;;;;;44.38;24.95;;;;;;;;;;4991512;28;20050;-68
2021/12/14 06:07:08;;;;;;;45.42;25.70;;;;;;;;;;4991959;28;20034;-68
2021/12/14 06:09:36;;;;;;;53.22;25.50;;;;;;;;;;4992083;28;20085;-68
2021/12/14 06:12:08;;;;;;;50.70;27.25;;;;;;;;;;4991168;28;20099;-68
2021/12/14 06:14:41;;;;;;;46.33;26.83;;;;;;;;;;4992268;28;20145;-68
2021/12/14 06:17:07;;;;;;;49.20;26.38;;;;;;;;;;4991866;28;20054;-68
2021/12/14 06:19:37;;;;;;;50.65;26.00;;;;;;;;;;4991145;28;20058;-68
2021/12/14 06:22:06;;;;;;;49.28;27.25;;;;;;;;;;4991525;28;20039;-68
2021/12/14 06:24:33;;;;;;;53.35;27.83;;;;;;;;;;4975464;28;20042;-68
2021/12/14 06:27:02;;;;;;;50.95;26.92;;;;;;;;;;4990836;28;20076;-68
2021/12/14 06:29:35;;;;;;;49.20;27.05;;;;;;;;;;4991462;28;20592;-68
2021/12/14 06:32:18;;;;;;;52.67;27.77;;;;;;;;;;4991370;28;20046;-68
2021/12/14 06:34:46;;;;;;;51.08;27.75;;;;;;;;;;4991093;28;20046;-68
2021/12/14 06:37:27;;;;;;;53.28;27.70;;;;;;;;;;4991554;28;20108;-68
2021/12/14 06:39:58;;;;;;;52.97;28.13;;;;;;;;;;4993193;28;20061;-68
2021/12/14 06:42:25;;;;;;;56.20;28.20;;;;;;;;;;4990107;28;20042;-68
2021/12/14 06:44:51;;;;;;;51.92;27.83;;;;;;;;;;4991475;28;20057;-68
2021/12/14 06:47:17;;;;;;;51.85;28.75;;;;;;;;;;4991057;28;20443;-68
2021/12/14 06:49:43;;;;;;;52.17;28.48;;;;;;;;;;4990553;28;20404;-68
2021/12/14 06:52:09;;;;;;;49.65;28.00;;;;;;;;;;4974451;28;20355;-68
2021/12/14 06:54:35;;;;;;;59.85;30.00;;;;;;;;;;4991026;28;20551;-68
2021/12/14 06:57:02;;;;;;;54.45;29.30;;;;;;;;;;4991686;28;20128;-68
2021/12/14 06:59:29;;;;;;;52.95;29.05;;;;;;;;;;4991053;28;20077;-68
2021/12/14 07:01:57;;;;;;;55.10;29.35;;;;;;;;;;4990545;28;20409;-68
2021/12/14 07:04:25;;;;;;;57.70;31.08;;;;;;;;;;4973982;28;20046;-69
2021/12/14 07:06:59;;;;;;;53.67;29.75;;;;;;;;;;4990962;28;20042;-68
2021/12/14 07:09:33;;;;;;;55.83;30.52;;;;;;;;;;4991165;28;20117;-68
2021/12/14 07:12:02;;;;;;;52.75;29.13;;;;;;;;;;4991186;28;20050;-68
2021/12/14 07:14:29;;;;;;;54.15;30.08;;;;;;;;;;4991995;28;20030;-68
2021/12/14 07:17:01;;;;;;;55.90;29.38;;;;;;;;;;4990446;28;20038;-68
2021/12/14 07:19:27;;;;;;;;;;;;;;;;;;4990745;28;20046;-68
2021/12/14 07:21:53;;;;;;;53.47;28.75;;;;;;;;;;4990358;28;19921;-68
2021/12/14 07:24:22;;;;;;;53.25;28.85;;;;;;;;;;4974950;28;20050;-69
2021/12/14 07:26:49;;;;;;;54.60;29.02;;;;;;;;;;4991097;28;20046;-69
2021/12/14 07:29:25;;;;;;;54.92;30.17;;;;;;;;;;5005823;28;20068;-68
2021/12/14 07:31:51;;;;;;;55.45;30.17;;;;;;;;;;4989894;28;20108;-69
2021/12/14 07:34:21;;;;;;;54.53;29.52;;;;;;;;;;4990618;28;20045;-67
2021/12/14 07:36:47;;;;;;;55.60;30.63;;;;;;;;;;5006713;28;20060;-67
2021/12/14 07:39:14;;;;;;;57.72;31.02;;;;;;;;;;5010807;28;20038;-67
2021/12/14 07:41:42;;;;;;;59.58;31.27;;;;;;;;;;5010780;28;20362;-67
2021/12/14 07:44:15;;;;;;;58.40;31.40;;;;;;;;;;5008507;28;20187;-66
2021/12/14 07:46:47;;;;;;;62.85;32.78;;;;;;;;;;5008301;28;20046;-66
2021/12/14 07:49:19;;;;;;;58.45;30.48;;;;;;;;;;5010094;28;20053;-64
2021/12/14 07:51:45;;;;;;;59.88;31.50;;;;;;;;;;5010071;28;20137;-65
2021/12/14 07:54:14;;;;;;;58.60;32.00;;;;;;;;;;5015683;28;20048;-65
2021/12/14 07:56:48;;;;;;;62.03;32.35;;;;;;;;;;5013851;28;20053;-65
2021/12/14 07:59:20;;;;;;;59.20;30.92;;;;;;;;;;5013429;28;20100;-65
2021/12/14 08:01:46;;;;;;;;;;;;;;;;;;5014509;28;20160;-65
2021/12/14 08:04:13;;;;;;;60.17;30.92;;;;;;;;;;5013311;28;19943;-64
2021/12/14 08:06:49;;;;;;;58.63;30.75;;;;;;;;;;5014332;28;20049;-66
2021/12/14 08:09:18;;;;;;;60.90;32.03;;;;;;;;;;5013761;28;20038;-67
2021/12/14 08:11:47;;;;;;;64.40;32.30;;;;;;;;;;5012267;28;20100;-65
2021/12/14 08:14:18;;;;;;;62.20;32.78;;;;;;;;;;5013866;28;20638;-66
2021/12/14 08:17:07;;;;;;;66.03;32.28;;;;;;;;;;5013254;28;20723;-65
2021/12/14 08:19:41;;;;;;;64.90;32.08;;;;;;;;;;5005000;28;20054;-65
2021/12/14 08:22:27;;;;;;;60.00;31.77;;;;;;;;;;5013878;28;20380;-64
2021/12/14 08:24:54;;;;;;;62.92;32.17;;;;;;;;;;5013202;28;20069;-65
2021/12/14 08:27:21;;;;;;;59.05;31.20;;;;;;;;;;5013366;28;20049;-65
2021/12/14 08:29:52;;;;;;;64.70;33.40;;;;;;;;;;5011288;28;20050;-64
2021/12/14 08:32:21;;;;;;;66.18;33.53;;;;;;;;;;5012113;28;20046;-64
2021/12/14 08:34:50;;;;;;;59.92;30.35;;;;;;;;;;5012015;28;20064;-64
2021/12/14 08:37:18;;;;;;;63.03;32.70;;;;;;;;;;5012402;28;20056;-66
2021/12/14 08:39:52;;;;;;;60.85;31.85;;;;;;;;;;5012679;28;20110;-65
2021/12/14 08:42:22;;;;;;;60.13;32.55;;;;;;;;;;5013141;28;20065;-65
2021/12/14 08:44:54;;;;;;;59.30;31.45;;;;;;;;;;5012045;28;20078;-66
2021/12/14 08:47:36;;;;;;;61.88;32.85;;;;;;;;;;5012329;28;20052;-66
2021/12/14 08:50:08;;;;;;;60.47;31.27;;;;;;;;;;5013443;28;20042;-64
2021/12/14 08:52:34;;;;;;;59.25;32.13;;;;;;;;;;5013085;28;20080;-66
2021/12/14 08:55:01;;;;;;;63.60;32.60;;;;;;;;;;5012384;28;20399;-66
2021/12/14 08:57:29;;;;;;;62.38;33.28;;;;;;;;;;5013283;28;20121;-66
2021/12/14 08:59:57;;;;;;;62.00;32.55;;;;;;;;;;5011153;28;20046;-66
2021/12/14 09:02:25;;;;;;;55.65;30.95;;;;;;;;;;5005354;28;20567;-66
2021/12/14 09:04:59;;;;;;;55.28;30.25;;;;;;;;;;5007844;28;20129;-66
2021/12/14 09:07:28;;;;;;;56.05;31.35;;;;;;;;;;4994439;28;20046;-63
2021/12/14 09:09:55;;;;;;;59.78;30.77;;;;;;;;;;4961073;28;20049;-63
2021/12/14 09:12:29;;;;;;;61.15;31.55;;;;;;;;;;5011748;28;20069;-64
2021/12/14 09:14:58;;;;;;;53.90;30.83;;;;;;;;;;5012360;28;20481;-66
2021/12/14 09:17:24;;;;;;;58.88;30.63;;;;;;;;;;5011679;28;20100;-66
2021/12/14 09:19:56;;;;;;;62.22;32.92;;;;;;;;;;5011661;28;20137;-66
2021/12/14 09:22:27;;;;;;;52.00;29.63;;;;;;;;;;5012213;28;20489;-66
2021/12/14 09:24:54;;;;;;;61.30;31.52;;;;;;;;;;5010370;28;20121;-67
2021/12/14 09:27:22;;;;;;;57.55;30.63;;;;;;;;;;5016074;28;20037;-66
2021/12/14 09:29:49;;;;;;;62.58;32.60;;;;;;;;;;5012628;28;20064;-66
2021/12/14 09:32:21;;;;;;;55.22;29.88;;;;;;;;;;5015993;28;20073;-66
2021/12/14 09:34:47;;;;;;;61.73;31.20;;;;;;;;;;5001860;28;20053;-65
2021/12/14 09:37:14;;;;;;;58.92;32.25;;;;;;;;;;5013960;28;20292;-64
2021/12/14 09:39:45;;;;;;;53.75;30.38;;;;;;;;;;5010701;28;20371;-65
2021/12/14 09:42:13;;;;;;;59.50;32.92;;;;;;;;;;5011633;28;20066;-68
2021/12/14 09:44:40;;;;;;;60.70;31.20;;;;;;;;;;5010642;28;20104;-65
2021/12/14 09:47:09;;;;;;;61.38;31.75;;;;;;;;;;5010939;28;20161;-65
2021/12/14 09:49:35;;;;;;;58.83;32.28;;;;;;;;;;5006957;28;20128;-64
2021/12/14 09:52:06;;;;;;;65.65;33.65;;;;;;;;;;5011917;28;20150;-65
2021/12/14 09:54:32;;;;;;;58.50;31.58;;;;;;;;;;5010162;28;20038;-65
2021/12/14 09:57:06;;;;;;;59.80;30.67;;;;;;;;;;5010822;28;20128;-65
2021/12/14 09:59:32;;;;;;;56.42;30.52;;;;;;;;;;4977187;28;20041;-67
2021/12/14 10:02:04;;;;;;;60.10;31.30;;;;;;;;;;5007451;28;20532;-66
2021/12/14 10:04:34;;;;;;;54.22;28.77;;;;;;;;;;5009240;28;20080;-65
2021/12/14 10:07:03;;;;;;;57.08;29.55;;;;;;;;;;5010921;28;20064;-66
2021/12/14 10:09:31;;;;;;;54.47;29.60;;;;;;;;;;5007638;28;20493;-66
2021/12/14 10:12:07;;;;;;;55.85;29.77;;;;;;;;;;5012512;28;20057;-65
2021/12/14 10:14:35;;;;;;;52.65;27.30;;;;;;;;;;5010809;28;20037;-65
2021/12/14 10:17:02;;;;;;;53.35;29.65;;;;;;;;;;5009636;28;20148;-65
2021/12/14 10:19:30;;;;;;;52.63;27.50;;;;;;;;;;5010137;28;20392;-66
2021/12/14 10:21:58;;;;;;;50.53;28.45;;;;;;;;;;5011365;28;20641;-66
2021/12/14 10:24:25;;;;;;;51.22;25.75;;;;;;;;;;5010216;28;20100;-66
2021/12/14 10:26:54;;;;;;;55.67;28.50;;;;;;;;;;5010705;28;20045;-65
2021/12/14 10:29:21;;;;;;;51.10;27.40;;;;;;;;;;5010297;28;20137;-64
2021/12/14 10:31:49;;;;;;;50.17;27.75;;;;;;;;;;5009706;28;20120;-64
2021/12/14 10:34:18;;;;;;;49.33;26.23;;;;;;;;;;5010969;28;20392;-66
2021/12/14 10:36:47;;;;;;;47.70;26.08;;;;;;;;;;5010424;28;20104;-64
2021/12/14 10:39:35;;;;;;;50.97;27.70;;;;;;;;;;4992142;28;20057;-65
2021/12/14 10:44:54;;;;;;;56.20;28.08;;;;;;;;;;5010210;28;20045;-67
2021/12/14 10:47:22;;;;;;;55.92;28.88;;;;;;;;;;5008910;28;20029;-67
2021/12/14 10:49:48;;;;;;;53.33;27.98;;;;;;;;;;5009423;28;20042;-65
2021/12/14 10:52:16;;;;;;;55.33;28.80;;;;;;;;;;5010410;28;20132;-66
2021/12/14 10:54:53;;;;;;;55.88;27.10;;;;;;;;;;5010286;28;20040;-67
2021/12/14 10:57:21;;;;;;;55.75;28.92;;;;;;;;;;5010218;28;20104;-67
2021/12/14 10:59:50;;;;;;;54.50;27.40;;;;;;;;;;5009487;28;20139;-66
2021/12/14 11:02:20;;;;;;;52.05;27.00;;;;;;;;;;5009450;28;20048;-67
2021/12/14 11:04:54;;;;;;;56.80;27.90;;;;;;;;;;4991785;28;20046;-65
2021/12/14 11:07:35;;;;;;;54.47;27.85;;;;;;;;;;5010694;28;20037;-66
2021/12/14 11:10:12;;;;;;;56.05;28.13;;;;;;;;;;5009889;28;20061;-66
2021/12/14 11:12:40;;;;;;;51.47;26.20;;;;;;;;;;5006846;28;20083;-66
2021/12/14 11:15:12;;;;;;;50.35;26.05;;;;;;;;;;5009558;28;20050;-65
2021/12/14 11:20:26;;;;;;;47.45;26.13;;;;;;;;;;5007447;28;20065;-65
2021/12/14 11:23:13;;;;;;;55.00;26.98;;;;;;;;;;4991321;28;20041;-64
2021/12/14 11:25:44;;;;;;;51.28;27.02;;;;;;;;;;5010912;28;20038;-66
2021/12/14 11:28:13;;;;;;;55.30;26.67;;;;;;;;;;5009282;28;20053;-65
2021/12/14 11:30:42;;;;;;;54.10;27.00;;;;;;;;;;5006563;28;20049;-65
2021/12/14 11:33:19;;;;;;;57.40;27.15;;;;;;;;;;5009731;28;20052;-65
2021/12/14 11:35:48;;;;;;;53.13;26.75;;;;;;;;;;5010244;28;20373;-66
2021/12/14 11:38:33;;;;;;;56.08;26.92;;;;;;;;;;4991616;28;20288;-65
2021/12/14 11:41:19;;;;;;;51.35;25.75;;;;;;;;;;5008890;28;20129;-65
2021/12/14 11:43:53;;;;;;;45.83;22.95;;;;;;;;;;5010684;28;20405;-65
2021/12/14 11:46:20;;;;;;;47.58;24.02;;;;;;;;;;5001791;28;20042;-65
2021/12/14 11:48:46;;;;;;;43.08;22.80;;;;;;;;;;5010215;28;20076;-65
2021/12/14 11:51:12;;;;;;;43.75;22.83;;;;;;;;;;5010132;28;20042;-65
2021/12/14 11:53:38;;;;;;;43.95;23.02;;;;;;;;;;5010225;28;20084;-65
2021/12/14 11:56:12;;;;;;;45.67;23.52;;;;;;;;;;5010518;28;20050;-66
2021/12/14 11:58:48;;;;;;;40.75;21.58;;;;;;;;;;5005802;28;20068;-65
2021/12/14 12:01:14;;;;;;;42.63;21.83;;;;;;;;;;5000925;28;20041;-66
2021/12/14 12:03:40;;;;;;;38.33;20.88;;;;;;;;;;5009369;28;20555;-64
2021/12/14 12:06:33;;;;;;;43.75;21.40;;;;;;;;;;5010454;28;20421;-65
2021/12/14 12:12:00;;;;;;;41.17;21.30;;;;;;;;;;5010024;28;20152;-65
2021/12/14 12:14:28;;;;;;;39.13;21.20;;;;;;;;;;5003454;28;20042;-65
2021/12/14 12:16:56;;;;;;;39.83;20.08;;;;;;;;;;5010181;28;20054;-66
2021/12/14 12:19:27;;;;;;;36.45;19.05;;;;;;;;;;5007617;28;20408;-66
2021/12/14 12:21:54;;;;;;;41.50;20.30;;;;;;;;;;5017217;28;20067;-65
2021/12/14 12:24:30;;;;;;;40.35;20.02;;;;;;;;;;5011485;28;20038;-65
2021/12/14 12:27:15;;;;;;;38.55;18.65;;;;;;;;;;5010194;28;20465;-63
2021/12/14 12:29:42;;;;;;;41.05;18.92;;;;;;;;;;5007167;28;20058;-66
2021/12/14 12:32:17;;;;;;;37.75;19.25;;;;;;;;;;5009073;28;20053;-64
2021/12/14 12:34:44;;;;;;;42.20;21.20;;;;;;;;;;5001124;28;20677;-65
2021/12/14 12:37:11;;;;;;;42.58;20.85;;;;;;;;;;5009339;28;20045;-66
2021/12/14 12:39:37;;;;;;;40.00;20.42;;;;;;;;;;5009618;28;20045;-65
2021/12/14 12:42:05;;;;;;;43.63;20.60;;;;;;;;;;5013971;28;20128;-65
2021/12/14 12:44:32;;;;;;;39.88;19.55;;;;;;;;;;5012082;28;20073;-66
2021/12/14 12:47:01;;;;;;;42.10;22.10;;;;;;;;;;5012352;28;20046;-65
2021/12/14 12:49:27;;;;;;;43.90;21.45;;;;;;;;;;5013139;28;20056;-66
2021/12/14 12:51:56;;;;;;;42.35;20.30;;;;;;;;;;5012739;28;20034;-64
2021/12/14 12:54:25;;;;;;;39.72;20.73;;;;;;;;;;5012914;28;20109;-67
2021/12/14 12:57:09;;;;;;;46.30;21.67;;;;;;;;;;5012701;28;20038;-66
2021/12/14 12:59:37;;;;;;;45.10;22.05;;;;;;;;;;5012098;28;20046;-66
2021/12/14 13:02:18;;;;;;;43.60;21.02;;;;;;;;;;5012938;28;20041;-66
2021/12/14 13:04:46;;;;;;;45.60;22.60;;;;;;;;;;5012202;28;20046;-66
2021/12/14 13:07:12;;;;;;;41.80;22.33;;;;;;;;;;5011525;28;20080;-65
2021/12/14 13:09:57;;;;;;;43.97;21.83;;;;;;;;;;5012311;28;20042;-65
2021/12/14 13:12:49;;;;;;;45.97;21.75;;;;;;;;;;5011520;28;20052;-66
2021/12/14 13:15:30;;;;;;;54.90;22.15;;;;;;;;;;5007030;28;20049;-66
2021/12/14 13:18:15;;;;;;;50.57;21.77;;;;;;;;;;5016305;28;20048;-65
2021/12/14 13:20:42;;;;;;;45.05;22.50;;;;;;;;;;5011970;28;20087;-64
2021/12/14 13:23:08;;;;;;;47.97;23.48;;;;;;;;;;5012148;28;20069;-66
2021/12/14 13:25:39;;;;;;;41.47;20.85;;;;;;;;;;5011267;28;20068;-67
2021/12/14 13:28:06;;;;;;;42.97;21.63;;;;;;;;;;5011743;28;20054;-65
2021/12/14 13:30:32;;;;;;;44.50;22.30;;;;;;;;;;5010903;28;20432;-65
2021/12/14 13:32:58;;;;;;;41.67;20.58;;;;;;;;;;5011592;28;20613;-65
2021/12/14 13:35:28;;;;;;;45.40;21.63;;;;;;;;;;5020832;28;20369;-65
2021/12/14 13:38:03;;;;;;;44.72;21.70;;;;;;;;;;5010960;28;21025;-66
2021/12/14 13:40:29;;;;;;;42.55;21.65;;;;;;;;;;5015473;28;20036;-65
2021/12/14 13:43:13;;;;;;;46.00;21.13;;;;;;;;;;5014128;28;20037;-65
2021/12/14 13:45:41;;;;;;;41.70;21.75;;;;;;;;;;5011864;28;20091;-66
2021/12/14 13:48:08;;;;;;;44.85;21.45;;;;;;;;;;5012038;28;20046;-65
2021/12/14 13:50:38;;;;;;;45.92;21.80;;;;;;;;;;5011619;28;20520;-65
2021/12/14 13:53:04;;;;;;;40.33;20.23;;;;;;;;;;5011226;28;20034;-64
2021/12/14 13:55:37;;;;;;;42.85;22.17;;;;;;;;;;5012620;28;20044;-64
2021/12/14 13:58:08;;;;;;;41.85;20.80;;;;;;;;;;5009960;28;20488;-65
2021/12/14 14:00:40;;;;;;;37.73;19.30;;;;;;;;;;5008657;28;20451;-64
2021/12/14 14:03:07;;;;;;;37.15;18.95;;;;;;;;;;5011698;28;20096;-66
2021/12/14 14:05:33;;;;;;;35.60;19.38;;;;;;;;;;5012635;28;20653;-65
2021/12/14 14:08:01;;;;;;;37.88;19.70;;;;;;;;;;4996359;28;20034;-64
2021/12/14 14:10:28;;;;;;;41.10;20.30;;;;;;;;;;5011258;28;20034;-65
2021/12/14 14:12:59;;;;;;;38.28;20.00;;;;;;;;;;5010883;28;20668;-65
2021/12/14 14:15:27;;;;;;;37.78;19.80;;;;;;;;;;5012318;28;20119;-65
2021/12/14 14:17:55;;;;;;;38.03;19.23;;;;;;;;;;5014908;28;20045;-66
2021/12/14 14:20:24;;;;;;;37.50;19.40;;;;;;;;;;5011834;28;20046;-66
2021/12/14 14:22:50;;;;;;;38.33;18.85;;;;;;;;;;5008757;28;20112;-66
2021/12/14 14:25:22;;;;;;;37.00;19.27;;;;;;;;;;5011843;28;20030;-65
2021/12/14 14:27:48;;;;;;;38.70;19.30;;;;;;;;;;5011541;28;20034;-65
2021/12/14 14:30:33;;;;;;;38.78;19.40;;;;;;;;;;5012569;28;20695;-66
2021/12/14 14:33:22;;;;;;;37.28;18.90;;;;;;;;;;5012727;28;20137;-65
2021/12/14 14:35:48;;;;;;;37.30;18.25;;;;;;;;;;5008564;28;20771;-65
2021/12/14 14:38:20;;;;;;;32.38;17.55;;;;;;;;;;5012660;28;20050;-65
2021/12/14 14:40:46;;;;;;;33.83;18.20;;;;;;;;;;5020836;28;20167;-65
2021/12/14 14:43:12;;;;;;;35.58;18.88;;;;;;;;;;5017727;28;20042;-65
2021/12/14 14:45:43;;;;;;;35.63;18.55;;;;;;;;;;4997488;28;20045;-66
2021/12/14 14:48:24;;;;;;;40.50;18.60;;;;;;;;;;5015683;28;20042;-65
2021/12/14 14:50:50;;;;;;;37.40;19.33;;;;;;;;;;5012767;28;20436;-64
2021/12/14 14:53:18;;;;;;;38.05;17.83;;;;;;;;;;5015081;28;20042;-64
2021/12/14 14:55:48;;;;;;;35.30;18.05;;;;;;;;;;5014123;28;20037;-66
2021/12/14 14:58:20;;;;;;;36.50;18.17;;;;;;;;;;5011664;28;20085;-65
2021/12/14 15:00:46;;;;;;;40.17;19.92;;;;;;;;;;5010952;28;20046;-65
2021/12/14 15:03:24;;;;;;;41.75;19.98;;;;;;;;;;5012818;28;20100;-65
2021/12/14 15:06:00;;;;;;;33.97;18.45;;;;;;;;;;5009874;28;20038;-65
2021/12/14 15:08:56;;;;;;;38.97;18.95;;;;;;;;;;5017716;28;20049;-66
2021/12/14 15:11:31;;;;;;;36.47;18.25;;;;;;;;;;4978422;28;20061;-66